createdAt,value
2023-02-19T00:01:44.244Z,1.75
2023-02-19T00:04:19.488Z,1.65
2023-02-19T00:06:47.191Z,1.65
2023-02-19T00:09:15.952Z,1.23
2023-02-19T00:11:42.948Z,1.48
2023-02-19T00:14:14.367Z,1.50
2023-02-19T00:16:42.129Z,1.67
2023-02-19T00:19:13.755Z,1.38
2023-02-19T00:24:08.430Z,1.88
2023-02-19T00:26:35.121Z,1.52
2023-02-19T00:29:02.139Z,1.80
2023-02-19T00:31:34.239Z,1.42
2023-02-19T00:34:04.820Z,1.25
2023-02-19T00:36:32.631Z,1.23
2023-02-19T00:38:59.334Z,1.55
2023-02-19T00:41:26.359Z,1.15
2023-02-19T00:43:54.712Z,1.33
2023-02-19T00:46:36.798Z,1.95
2023-02-19T00:49:05.057Z,1.35
2023-02-19T00:51:37.746Z,1.20
2023-02-19T00:54:05.956Z,1.50
2023-02-19T00:56:32.960Z,1.30
2023-02-19T00:58:59.785Z,1.20
2023-02-19T01:01:26.525Z,1.30
2023-02-19T01:03:53.336Z,1.40
2023-02-19T01:06:20.802Z,0.90
2023-02-19T01:08:47.757Z,1.20
2023-02-19T01:11:15.068Z,1.48
2023-02-19T01:13:42.710Z,1.40
2023-02-19T01:16:18.839Z,1.20
2023-02-19T01:18:46.662Z,0.98
2023-02-19T01:21:16.452Z,0.80
2023-02-19T01:23:44.095Z,1.00
2023-02-19T01:26:16.997Z,1.10
2023-02-19T01:28:44.513Z,1.02
2023-02-19T01:31:17.736Z,1.00
2023-02-19T01:33:46.983Z,1.27
2023-02-19T01:36:14.803Z,0.95
2023-02-19T01:38:42.417Z,1.10
2023-02-19T01:41:12.579Z,0.85
2023-02-19T01:44:04.778Z,1.42
2023-02-19T01:49:04.408Z,1.10
2023-02-19T01:51:33.600Z,1.13
2023-02-19T01:54:04.953Z,1.20
2023-02-19T01:56:34.517Z,1.10
2023-02-19T01:59:02.054Z,1.00
2023-02-19T02:01:28.982Z,1.30
2023-02-19T02:03:55.680Z,1.17
2023-02-19T02:06:30.673Z,1.27
2023-02-19T02:09:17.327Z,1.10
2023-02-19T02:11:52.594Z,1.17
2023-02-19T02:14:25.415Z,1.58
2023-02-19T02:19:39.511Z,1.10
2023-02-19T02:22:35.513Z,1.25
2023-02-19T02:25:31.119Z,1.45
2023-02-19T02:28:25.720Z,1.30
2023-02-19T02:31:47.544Z,1.38
2023-02-19T02:34:39.636Z,1.27
2023-02-19T02:37:09.473Z,1.30
2023-02-19T02:39:37.882Z,1.60
2023-02-19T02:42:24.111Z,1.30
2023-02-19T02:45:34.982Z,1.38
2023-02-19T02:48:10.728Z,1.25
2023-02-19T02:51:10.547Z,1.50
2023-02-19T02:54:11.291Z,1.45
2023-02-19T02:56:41.338Z,1.50
2023-02-19T02:59:10.544Z,1.50
2023-02-19T03:02:03.586Z,1.60
2023-02-19T03:05:01.294Z,1.52
2023-02-19T03:07:34.041Z,1.85
2023-02-19T03:10:05.179Z,1.98
2023-02-19T03:12:51.993Z,1.67
2023-02-19T03:15:38.162Z,1.80
2023-02-19T03:18:28.836Z,2.05
2023-02-19T03:20:58.160Z,1.58
2023-02-19T03:23:48.628Z,1.48
2023-02-19T03:29:11.783Z,1.45
2023-02-19T03:31:43.524Z,1.00
2023-02-19T03:34:15.322Z,1.48
2023-02-19T03:36:53.936Z,1.08
2023-02-19T03:39:23.287Z,1.40
2023-02-19T03:42:10.105Z,1.20
2023-02-19T03:44:43.446Z,1.30
2023-02-19T03:47:23.134Z,1.08
2023-02-19T03:49:58.488Z,1.40
2023-02-19T03:52:56.563Z,1.40
2023-02-19T03:55:35.685Z,1.63
2023-02-19T03:58:37.963Z,1.30
2023-02-19T04:01:39.707Z,1.50
2023-02-19T04:04:13.937Z,1.35
2023-02-19T04:06:43.553Z,1.35
2023-02-19T04:09:12.927Z,1.33
2023-02-19T04:11:43.581Z,1.42
2023-02-19T04:14:18.689Z,1.20
2023-02-19T04:16:51.251Z,1.08
2023-02-19T04:19:21.788Z,1.30
2023-02-19T04:21:53.094Z,1.50
2023-02-19T04:24:26.575Z,1.30
2023-02-19T04:26:55.014Z,1.00
2023-02-19T04:29:21.713Z,1.50
2023-02-19T04:31:48.559Z,1.05
2023-02-19T04:34:15.158Z,1.30
2023-02-19T04:36:41.948Z,1.45
2023-02-19T04:39:08.670Z,1.38
2023-02-19T04:41:35.311Z,1.23
2023-02-19T04:44:01.950Z,1.20
2023-02-19T04:46:28.574Z,1.00
2023-02-19T04:48:55.816Z,1.00
2023-02-19T04:51:22.585Z,1.10
2023-02-19T04:53:49.303Z,1.67
2023-02-19T04:56:17.201Z,0.90
2023-02-19T04:58:45.029Z,1.20
2023-02-19T05:01:12.901Z,1.15
2023-02-19T05:03:39.942Z,1.15
2023-02-19T05:06:08.986Z,1.45
2023-02-19T05:08:35.970Z,1.20
2023-02-19T05:11:04.682Z,0.85
2023-02-19T05:13:32.301Z,1.10
2023-02-19T05:16:16.024Z,1.23
2023-02-19T05:18:44.771Z,1.30
2023-02-19T05:21:12.557Z,1.65
2023-02-19T05:23:39.588Z,0.90
2023-02-19T05:26:14.181Z,1.30
2023-02-19T05:28:40.833Z,1.05
2023-02-19T05:31:09.382Z,1.15
2023-02-19T05:33:38.025Z,1.23
2023-02-19T05:36:07.929Z,1.00
2023-02-19T05:38:35.030Z,1.20
2023-02-19T05:41:10.550Z,1.40
2023-02-19T05:43:38.764Z,1.23
2023-02-19T05:46:06.589Z,1.42
2023-02-19T05:48:33.995Z,1.10
2023-02-19T05:51:09.724Z,1.38
2023-02-19T05:53:37.316Z,1.20
2023-02-19T05:56:04.992Z,1.10
2023-02-19T05:58:31.784Z,1.33
2023-02-19T06:00:58.432Z,1.25
2023-02-19T06:03:25.226Z,2.10
2023-02-19T06:05:51.917Z,1.67
2023-02-19T06:08:18.545Z,1.40
2023-02-19T06:10:45.254Z,1.50
2023-02-19T06:13:11.966Z,1.63
2023-02-19T06:15:39.368Z,1.88
2023-02-19T06:18:06.089Z,1.38
2023-02-19T06:20:33.078Z,1.58
2023-02-19T06:22:59.873Z,1.70
2023-02-19T06:25:26.528Z,1.30
2023-02-19T06:27:53.350Z,1.20
2023-02-19T06:30:20.507Z,1.10
2023-02-19T06:32:47.342Z,1.60
2023-02-19T06:35:14.197Z,1.27
2023-02-19T06:37:40.864Z,1.02
2023-02-19T06:40:08.260Z,0.65
2023-02-19T06:42:35.004Z,0.80
2023-02-19T06:45:02.900Z,0.80
2023-02-19T06:47:33.940Z,0.88
2023-02-19T06:50:00.873Z,0.60
2023-02-19T06:52:28.027Z,0.40
2023-02-19T06:54:57.890Z,0.50
2023-02-19T06:57:26.742Z,0.50
2023-02-19T06:59:53.601Z,0.40
2023-02-19T07:02:20.498Z,0.30
2023-02-19T07:05:04.475Z,0.30
2023-02-19T07:07:31.772Z,0.30
2023-02-19T07:09:58.768Z,0.40
2023-02-19T07:12:25.705Z,0.28
2023-02-19T07:14:54.622Z,0.40
2023-02-19T07:17:22.027Z,0.40
2023-02-19T07:19:52.513Z,0.25
2023-02-19T07:22:19.241Z,0.40
2023-02-19T07:24:47.872Z,0.45
2023-02-19T07:27:15.497Z,0.32
2023-02-19T07:29:42.207Z,0.50
2023-02-19T07:32:11.432Z,0.38
2023-02-19T07:34:38.201Z,0.50
2023-02-19T07:37:04.903Z,0.40
2023-02-19T07:39:31.606Z,0.40
2023-02-19T07:41:59.114Z,0.63
2023-02-19T07:44:26.746Z,0.50
2023-02-19T07:46:55.970Z,0.70
2023-02-19T07:49:22.714Z,0.65
2023-02-19T07:51:49.656Z,0.70
2023-02-19T07:54:16.788Z,0.85
2023-02-19T07:56:43.530Z,1.10
2023-02-19T07:59:11.122Z,0.80
2023-02-19T08:01:56.636Z,0.68
2023-02-19T08:04:23.276Z,0.80
2023-02-19T08:06:49.957Z,0.80
2023-02-19T08:09:17.111Z,0.90
2023-02-19T08:12:03.600Z,0.52
2023-02-19T08:14:30.501Z,1.20
2023-02-19T08:16:57.417Z,1.08
2023-02-19T08:19:25.185Z,0.70
2023-02-19T08:21:53.612Z,0.90
2023-02-19T08:24:21.499Z,0.52
2023-02-19T08:26:48.245Z,0.80
2023-02-19T08:29:14.935Z,0.55
2023-02-19T08:31:41.705Z,1.05
2023-02-19T08:34:08.807Z,0.85
2023-02-19T08:36:35.621Z,0.70
2023-02-19T08:39:02.369Z,0.60
2023-02-19T08:41:29.315Z,0.98
2023-02-19T08:43:55.995Z,0.88
2023-02-19T08:46:22.942Z,0.75
2023-02-19T08:48:49.714Z,2.88
2023-02-19T08:51:16.498Z,0.60
2023-02-19T08:53:43.366Z,0.70
2023-02-19T08:56:12.852Z,0.80
2023-02-19T08:58:39.707Z,1.75
2023-02-19T09:01:15.784Z,1.00
2023-02-19T09:03:43.038Z,1.13
2023-02-19T09:06:15.057Z,0.80
2023-02-19T09:08:41.786Z,0.95
2023-02-19T09:11:08.794Z,1.00
2023-02-19T09:13:35.610Z,0.70
2023-02-19T09:16:05.939Z,0.70
2023-02-19T09:18:33.274Z,0.60
2023-02-19T09:21:02.613Z,0.63
2023-02-19T09:23:34.339Z,0.70
2023-02-19T09:26:03.884Z,0.80
2023-02-19T09:28:31.274Z,0.80
2023-02-19T09:31:04.737Z,0.70
2023-02-19T09:33:32.552Z,1.00
2023-02-19T09:36:00.958Z,0.82
2023-02-19T09:38:29.612Z,0.70
2023-02-19T09:41:12.681Z,1.00
2023-02-19T09:43:44.097Z,0.70
2023-02-19T09:46:33.682Z,0.80
2023-02-19T09:49:29.162Z,0.63
2023-02-19T09:52:37.514Z,0.68
2023-02-19T09:55:31.225Z,0.70
2023-02-19T09:58:01.602Z,0.55
2023-02-19T10:00:33.198Z,0.70
2023-02-19T10:03:26.608Z,1.00
2023-02-19T10:05:56.858Z,1.08
2023-02-19T10:08:26.289Z,0.73
2023-02-19T10:10:55.535Z,0.88
2023-02-19T10:13:35.004Z,0.98
2023-02-19T10:16:05.355Z,0.60
2023-02-19T10:18:45.805Z,1.23
2023-02-19T10:21:28.603Z,0.80
2023-02-19T10:24:02.914Z,0.93
2023-02-19T10:26:34.822Z,0.80
2023-02-19T10:29:02.889Z,0.90
2023-02-19T10:31:33.677Z,1.02
2023-02-19T10:34:02.236Z,0.87
2023-02-19T10:36:36.569Z,0.80
2023-02-19T10:39:18.054Z,0.90
2023-02-19T10:41:44.805Z,0.93
2023-02-19T10:44:20.783Z,1.00
2023-02-19T10:46:54.693Z,1.10
2023-02-19T10:49:47.613Z,1.02
2023-02-19T10:52:28.014Z,0.93
2023-02-19T10:55:17.282Z,1.00
2023-02-19T10:57:44.300Z,1.00
2023-02-19T11:00:17.000Z,1.10
2023-02-19T11:02:44.808Z,1.02
2023-02-19T11:05:16.723Z,0.80
2023-02-19T11:07:56.104Z,1.20
2023-02-19T11:10:27.901Z,1.02
2023-02-19T11:13:06.575Z,0.95
2023-02-19T11:15:35.341Z,0.95
2023-02-19T11:18:14.525Z,0.57
2023-02-19T11:20:54.722Z,0.93
2023-02-19T11:23:46.029Z,0.80
2023-02-19T11:26:25.316Z,0.80
2023-02-19T11:28:57.841Z,0.57
2023-02-19T11:31:35.962Z,0.95
2023-02-19T11:34:25.133Z,0.80
2023-02-19T11:37:18.700Z,0.63
2023-02-19T11:39:48.872Z,0.65
2023-02-19T11:43:11.493Z,0.60
2023-02-19T11:45:47.938Z,0.70
2023-02-19T11:48:21.616Z,0.80
2023-02-19T11:51:01.489Z,0.50
2023-02-19T11:53:34.980Z,0.70
2023-02-19T11:56:34.701Z,0.50
2023-02-19T11:59:37.968Z,0.60
2023-02-19T12:02:20.994Z,0.95
2023-02-19T12:05:24.821Z,0.82
2023-02-19T12:08:02.782Z,0.90
2023-02-19T12:10:55.603Z,0.82
2023-02-19T12:13:25.258Z,1.00
2023-02-19T12:16:06.744Z,1.13
2023-02-19T12:19:03.445Z,1.10
2023-02-19T12:22:02.119Z,1.00
2023-02-19T12:24:49.000Z,0.82
2023-02-19T12:27:41.643Z,0.63
2023-02-19T12:30:17.621Z,1.13
2023-02-19T12:32:44.402Z,0.80
2023-02-19T12:35:29.914Z,0.80
2023-02-19T12:38:12.789Z,1.02
2023-02-19T12:41:01.107Z,1.45
2023-02-19T12:43:30.508Z,0.80
2023-02-19T12:46:08.584Z,1.30
2023-02-19T12:48:47.488Z,1.05
2023-02-19T12:51:35.970Z,1.30
2023-02-19T12:54:11.654Z,1.17
2023-02-19T12:56:48.364Z,1.30
2023-02-19T12:59:37.584Z,1.30
2023-02-19T13:02:19.548Z,1.23
2023-02-19T13:05:05.592Z,1.30
2023-02-19T13:07:46.939Z,1.30
2023-02-19T13:10:16.690Z,1.00
2023-02-19T13:12:45.894Z,1.13
2023-02-19T13:15:34.754Z,1.20
2023-02-19T13:18:03.834Z,1.20
2023-02-19T13:20:41.036Z,1.38
2023-02-19T13:23:34.536Z,1.10
2023-02-19T13:26:43.200Z,1.55
2023-02-19T13:29:47.739Z,1.00
2023-02-19T13:32:39.867Z,1.17
2023-02-19T13:35:44.862Z,1.00
2023-02-19T13:38:13.474Z,1.40
2023-02-19T13:40:45.039Z,1.10
2023-02-19T13:45:56.643Z,1.20
2023-02-19T13:48:33.238Z,0.95
2023-02-19T13:51:24.451Z,1.15
2023-02-19T13:53:57.135Z,1.17
2023-02-19T13:56:29.958Z,1.20
2023-02-19T13:59:01.410Z,1.30
2023-02-19T14:01:52.964Z,1.05
2023-02-19T14:04:22.812Z,1.13
2023-02-19T14:07:04.727Z,1.10
2023-02-19T14:12:14.321Z,0.95
2023-02-19T14:14:49.180Z,1.10
2023-02-19T14:17:26.609Z,1.15
2023-02-19T14:20:10.007Z,0.95
2023-02-19T14:22:47.422Z,1.00
2023-02-19T14:25:30.335Z,1.13
2023-02-19T14:28:06.693Z,1.30
2023-02-19T14:30:35.812Z,1.20
2023-02-19T14:33:11.735Z,1.10
2023-02-19T14:35:44.129Z,1.05
2023-02-19T14:38:23.308Z,1.05
2023-02-19T14:40:58.921Z,1.83
2023-02-19T14:43:30.603Z,1.40
2023-02-19T14:46:20.610Z,0.77
2023-02-19T14:48:50.922Z,1.48
2023-02-19T14:51:41.479Z,1.10
2023-02-19T14:54:49.013Z,1.05
2023-02-19T14:57:26.051Z,1.02
2023-02-19T15:00:01.444Z,1.30
2023-02-19T15:02:32.100Z,1.17
2023-02-19T15:05:03.348Z,1.40
2023-02-19T15:07:36.904Z,2.42
2023-02-19T15:10:24.103Z,1.50
2023-02-19T15:13:06.661Z,1.90
2023-02-19T15:15:40.416Z,1.92
2023-02-19T15:18:37.765Z,1.73
2023-02-19T15:21:05.981Z,1.50
2023-02-19T15:23:36.328Z,1.50
2023-02-19T15:26:03.729Z,1.13
2023-02-19T15:28:34.603Z,1.45
2023-02-19T15:31:03.558Z,1.55
2023-02-19T15:33:31.138Z,1.05
2023-02-19T15:36:06.731Z,1.27
2023-02-19T15:38:34.981Z,1.40
2023-02-19T15:41:21.832Z,1.48
2023-02-19T15:44:03.958Z,1.17
2023-02-19T15:46:32.030Z,1.77
2023-02-19T15:49:09.661Z,1.38
2023-02-19T15:52:00.994Z,1.48
2023-02-19T15:54:33.936Z,1.23
2023-02-19T15:57:07.078Z,1.40
2023-02-19T16:00:11.103Z,1.08
2023-02-19T16:02:49.006Z,1.30
2023-02-19T16:05:26.107Z,0.90
2023-02-19T16:08:31.003Z,1.08
2023-02-19T16:11:01.505Z,1.00
2023-02-19T16:13:35.072Z,1.38
2023-02-19T16:16:30.271Z,1.23
2023-02-19T16:18:59.430Z,1.17
2023-02-19T16:21:28.632Z,1.35
2023-02-19T16:24:15.304Z,1.30
2023-02-19T16:26:45.425Z,1.17
2023-02-19T16:29:27.768Z,1.60
2023-02-19T16:31:59.250Z,1.50
2023-02-19T16:34:44.591Z,1.60
2023-02-19T16:37:29.597Z,1.70
2023-02-19T16:40:08.470Z,2.75
2023-02-19T16:42:56.352Z,1.75
2023-02-19T16:45:23.569Z,1.90
2023-02-19T16:47:51.689Z,1.65
2023-02-19T16:50:25.297Z,1.77
2023-02-19T16:52:54.005Z,1.90
2023-02-19T16:55:20.954Z,1.50
2023-02-19T16:57:47.686Z,1.60
2023-02-19T17:00:29.885Z,1.50
2023-02-19T17:03:03.208Z,1.67
2023-02-19T17:05:32.384Z,1.55
2023-02-19T17:07:59.662Z,2.38
2023-02-19T17:10:27.938Z,1.58
2023-02-19T17:12:57.141Z,1.63
2023-02-19T17:15:23.748Z,1.42
2023-02-19T17:17:53.038Z,1.50
2023-02-19T17:20:29.570Z,1.02
2023-02-19T17:22:57.592Z,1.58
2023-02-19T17:25:24.218Z,1.20
2023-02-19T17:27:54.094Z,2.10
2023-02-19T17:30:27.816Z,1.77
2023-02-19T17:32:54.594Z,1.30
2023-02-19T17:35:22.074Z,1.90
2023-02-19T17:37:48.780Z,1.52
2023-02-19T17:40:33.872Z,1.70
2023-02-19T17:43:01.444Z,1.20
2023-02-19T17:45:30.216Z,1.50
2023-02-19T17:47:57.454Z,1.30
2023-02-19T17:50:28.168Z,1.77
2023-02-19T17:52:55.375Z,2.15
2023-02-19T17:55:22.301Z,2.08
2023-02-19T17:57:51.098Z,1.67
2023-02-19T18:00:28.826Z,2.10
2023-02-19T18:02:56.187Z,1.42
2023-02-19T18:05:23.258Z,1.63
2023-02-19T18:07:50.858Z,1.52
2023-02-19T18:10:19.235Z,1.60
2023-02-19T18:12:46.201Z,1.77
2023-02-19T18:15:22.657Z,1.52
2023-02-19T18:17:49.511Z,1.20
2023-02-19T18:20:19.084Z,1.65
2023-02-19T18:22:45.909Z,1.50
2023-02-19T18:25:12.576Z,2.58
2023-02-19T18:27:39.338Z,1.05
2023-02-19T18:30:07.094Z,0.82
2023-02-19T18:32:33.842Z,1.15
2023-02-19T18:35:00.752Z,2.03
2023-02-19T18:37:30.113Z,1.17
2023-02-19T18:39:58.222Z,1.38
2023-02-19T18:42:24.962Z,1.20
2023-02-19T18:44:52.845Z,1.50
2023-02-19T18:47:21.526Z,1.40
2023-02-19T18:49:53.366Z,1.48
2023-02-19T18:52:21.877Z,1.40
2023-02-19T18:54:51.621Z,1.25
2023-02-19T18:57:20.255Z,1.55
2023-02-19T18:59:47.398Z,1.38
2023-02-19T19:02:15.270Z,1.20
2023-02-19T19:04:43.038Z,1.52
2023-02-19T19:07:10.853Z,1.52
2023-02-19T19:09:37.648Z,1.80
2023-02-19T19:12:04.739Z,1.50
2023-02-19T19:14:31.450Z,1.50
2023-02-19T19:16:58.621Z,1.70
2023-02-19T19:19:25.250Z,1.98
2023-02-19T19:21:53.522Z,2.38
2023-02-19T19:24:21.720Z,1.52
2023-02-19T19:26:49.823Z,2.15
2023-02-19T19:29:19.672Z,1.50
2023-02-19T19:31:46.651Z,1.30
2023-02-19T19:34:14.083Z,1.67
2023-02-19T19:36:41.009Z,1.50
2023-02-19T19:39:09.279Z,1.63
2023-02-19T19:41:36.093Z,1.60
2023-02-19T19:44:07.138Z,1.40
2023-02-19T19:46:34.433Z,1.95
2023-02-19T19:49:01.180Z,1.80
2023-02-19T19:51:34.794Z,2.13
2023-02-19T19:54:04.139Z,2.33
2023-02-19T19:56:32.530Z,2.13
2023-02-19T19:58:59.458Z,2.10
2023-02-19T20:01:26.362Z,2.22
2023-02-19T20:03:53.196Z,2.60
2023-02-19T20:06:32.539Z,2.00
2023-02-19T20:09:02.199Z,2.25
2023-02-19T20:11:29.177Z,2.00
2023-02-19T20:13:56.136Z,2.13
2023-02-19T20:16:27.938Z,2.28
2023-02-19T20:21:21.386Z,2.72
2023-02-19T20:23:48.268Z,2.95
2023-02-19T20:26:25.703Z,3.78
2023-02-19T20:28:53.763Z,3.10
2023-02-19T20:31:21.582Z,3.25
2023-02-19T20:33:51.059Z,3.40
2023-02-19T20:36:20.044Z,3.13
2023-02-19T20:38:49.029Z,3.05
2023-02-19T20:41:16.183Z,3.10
2023-02-19T20:43:42.837Z,3.20
2023-02-19T20:46:09.705Z,3.15
2023-02-19T20:48:36.772Z,2.70
2023-02-19T20:51:04.018Z,2.30
2023-02-19T20:53:32.048Z,2.67
2023-02-19T20:55:59.001Z,2.83
2023-02-19T20:58:27.152Z,3.03
2023-02-19T21:00:54.282Z,2.50
2023-02-19T21:03:22.394Z,4.22
2023-02-19T21:05:49.422Z,2.65
2023-02-19T21:08:17.375Z,2.90
2023-02-19T21:10:46.131Z,2.75
2023-02-19T21:13:13.443Z,2.10
2023-02-19T21:15:40.130Z,3.08
2023-02-19T21:18:06.927Z,2.50
2023-02-19T21:20:33.825Z,3.00
2023-02-19T21:23:00.859Z,2.50
2023-02-19T21:25:27.852Z,2.38
2023-02-19T21:27:54.925Z,3.03
2023-02-19T21:30:21.725Z,2.70
2023-02-19T21:32:48.464Z,2.38
2023-02-19T21:35:15.252Z,2.65
2023-02-19T21:37:43.470Z,2.60
2023-02-19T21:40:12.127Z,2.45
2023-02-19T21:42:38.933Z,2.50
2023-02-19T21:45:06.064Z,2.35
2023-02-19T21:47:32.743Z,2.85
2023-02-19T21:49:59.393Z,2.50
2023-02-19T21:52:26.900Z,2.13
2023-02-19T21:54:53.460Z,1.92
2023-02-19T21:57:19.981Z,2.40
2023-02-19T21:59:54.390Z,2.55
2023-02-19T22:02:22.142Z,2.97
2023-02-19T22:04:53.602Z,2.75
2023-02-19T22:07:21.328Z,2.83
2023-02-19T22:09:49.346Z,2.70
2023-02-19T22:12:19.752Z,2.42
2023-02-19T22:14:46.278Z,2.47
2023-02-19T22:17:12.931Z,3.30
2023-02-19T22:19:39.533Z,3.10
2023-02-19T22:22:10.489Z,2.47
2023-02-19T22:24:36.980Z,2.50
2023-02-19T22:27:03.658Z,2.60
2023-02-19T22:29:30.584Z,2.53
2023-02-19T22:31:57.194Z,2.05
2023-02-19T22:34:23.950Z,2.47
2023-02-19T22:36:50.462Z,2.67
2023-02-19T22:39:26.943Z,2.65
2023-02-19T22:41:54.273Z,2.30
2023-02-19T22:44:20.786Z,2.53
2023-02-19T22:46:52.716Z,2.50
2023-02-19T22:49:20.395Z,2.55
2023-02-19T22:51:58.669Z,2.55
2023-02-19T22:54:26.944Z,2.50
2023-02-19T22:56:54.314Z,2.35
2023-02-19T22:59:21.242Z,1.85
2023-02-19T23:01:49.064Z,2.42
2023-02-19T23:04:15.787Z,1.80
2023-02-19T23:06:45.669Z,2.33
2023-02-19T23:09:17.527Z,2.00
2023-02-19T23:11:44.068Z,2.53
2023-02-19T23:14:10.752Z,2.28
2023-02-19T23:16:37.386Z,2.22
2023-02-19T23:19:11.266Z,3.88
2023-02-19T23:21:39.748Z,4.60
2023-02-19T23:24:06.629Z,5.00
2023-02-19T23:26:33.571Z,4.80
2023-02-19T23:29:00.242Z,3.80
2023-02-19T23:31:26.930Z,3.20
2023-02-19T23:33:55.166Z,4.03
2023-02-19T23:36:23.802Z,3.00
2023-02-19T23:38:50.442Z,3.22
2023-02-19T23:41:18.006Z,3.78
2023-02-19T23:43:45.070Z,4.20
2023-02-19T23:46:17.617Z,3.72
2023-02-19T23:48:44.971Z,3.42
2023-02-19T23:51:11.536Z,3.25
2023-02-19T23:53:38.049Z,3.90
2023-02-19T23:56:05.084Z,4.20
2023-02-19T23:58:31.593Z,3.15
